sensor_id;sensor_type;location;lat;lon;timestamp;P1;durP1;ratioP1;P2;durP2;ratioP2
71777;SDS011;59609;52.430;4.668;2022-10-19T00:01:03;6.68;;;4.25;;
71777;SDS011;59609;52.430;4.668;2022-10-19T00:03:33;7.53;;;3.88;;
71777;SDS011;59609;52.430;4.668;2022-10-19T00:06:00;7.90;;;4.45;;
71777;SDS011;59609;52.430;4.668;2022-10-19T00:08:40;9.35;;;4.35;;
71777;SDS011;59609;52.430;4.668;2022-10-19T00:11:06;9.77;;;4.28;;
71777;SDS011;59609;52.430;4.668;2022-10-19T00:13:32;8.73;;;4.40;;
71777;SDS011;59609;52.430;4.668;2022-10-19T00:15:57;7.97;;;4.57;;
71777;SDS011;59609;52.430;4.668;2022-10-19T00:18:23;9.95;;;5.45;;
71777;SDS011;59609;52.430;4.668;2022-10-19T00:20:48;11.38;;;4.90;;
71777;SDS011;59609;52.430;4.668;2022-10-19T00:23:13;11.82;;;5.07;;
71777;SDS011;59609;52.430;4.668;2022-10-19T00:25:39;12.50;;;5.05;;
71777;SDS011;59609;52.430;4.668;2022-10-19T00:28:04;10.65;;;4.72;;
71777;SDS011;59609;52.430;4.668;2022-10-19T00:30:29;9.20;;;5.03;;
71777;SDS011;59609;52.430;4.668;2022-10-19T00:32:55;8.75;;;4.75;;
71777;SDS011;59609;52.430;4.668;2022-10-19T00:35:20;9.63;;;4.85;;
71777;SDS011;59609;52.430;4.668;2022-10-19T00:37:46;11.43;;;5.15;;
71777;SDS011;59609;52.430;4.668;2022-10-19T00:40:11;8.60;;;4.85;;
71777;SDS011;59609;52.430;4.668;2022-10-19T00:42:37;9.90;;;5.00;;
71777;SDS011;59609;52.430;4.668;2022-10-19T00:45:08;9.25;;;5.15;;
71777;SDS011;59609;52.430;4.668;2022-10-19T00:50:02;8.15;;;5.07;;
71777;SDS011;59609;52.430;4.668;2022-10-19T00:52:28;9.25;;;5.20;;
71777;SDS011;59609;52.430;4.668;2022-10-19T00:54:54;11.57;;;4.80;;
71777;SDS011;59609;52.430;4.668;2022-10-19T00:57:22;11.07;;;5.78;;
71777;SDS011;59609;52.430;4.668;2022-10-19T00:59:50;11.63;;;5.43;;
71777;SDS011;59609;52.430;4.668;2022-10-19T01:02:16;10.50;;;4.95;;
71777;SDS011;59609;52.430;4.668;2022-10-19T01:04:43;10.20;;;4.93;;
71777;SDS011;59609;52.430;4.668;2022-10-19T01:07:12;9.90;;;4.97;;
71777;SDS011;59609;52.430;4.668;2022-10-19T01:09:38;23.10;;;10.90;;
71777;SDS011;59609;52.430;4.668;2022-10-19T01:25:58;8.13;;;4.63;;
71777;SDS011;59609;52.430;4.668;2022-10-19T01:31:51;7.38;;;4.25;;
71777;SDS011;59609;52.430;4.668;2022-10-19T01:34:30;5.90;;;4.13;;
71777;SDS011;59609;52.430;4.668;2022-10-19T01:37:15;6.03;;;4.00;;
71777;SDS011;59609;52.430;4.668;2022-10-19T01:39:52;9.43;;;3.92;;
71777;SDS011;59609;52.430;4.668;2022-10-19T01:42:28;10.45;;;4.30;;
71777;SDS011;59609;52.430;4.668;2022-10-19T01:44:59;7.60;;;4.78;;
71777;SDS011;59609;52.430;4.668;2022-10-19T01:50:04;8.07;;;5.05;;
71777;SDS011;59609;52.430;4.668;2022-10-19T01:52:33;7.80;;;4.03;;
71777;SDS011;59609;52.430;4.668;2022-10-19T01:55:02;8.63;;;4.38;;
71777;SDS011;59609;52.430;4.668;2022-10-19T01:57:36;7.45;;;4.00;;
71777;SDS011;59609;52.430;4.668;2022-10-19T02:00:10;9.18;;;4.28;;
71777;SDS011;59609;52.430;4.668;2022-10-19T02:02:46;8.25;;;4.05;;
71777;SDS011;59609;52.430;4.668;2022-10-19T02:05:14;6.70;;;3.80;;
71777;SDS011;59609;52.430;4.668;2022-10-19T02:07:43;5.50;;;3.67;;
71777;SDS011;59609;52.430;4.668;2022-10-19T02:10:12;10.40;;;3.92;;
71777;SDS011;59609;52.430;4.668;2022-10-19T02:12:38;5.50;;;4.05;;
71777;SDS011;59609;52.430;4.668;2022-10-19T02:15:07;10.60;;;4.75;;
71777;SDS011;59609;52.430;4.668;2022-10-19T02:17:38;10.80;;;4.60;;
71777;SDS011;59609;52.430;4.668;2022-10-19T02:20:08;8.63;;;4.15;;
71777;SDS011;59609;52.430;4.668;2022-10-19T02:22:34;10.50;;;4.72;;
71777;SDS011;59609;52.430;4.668;2022-10-19T02:24:59;6.88;;;3.75;;
71777;SDS011;59609;52.430;4.668;2022-10-19T02:27:25;7.97;;;4.40;;
71777;SDS011;59609;52.430;4.668;2022-10-19T02:29:51;6.05;;;4.25;;
71777;SDS011;59609;52.430;4.668;2022-10-19T02:32:18;6.03;;;3.85;;
71777;SDS011;59609;52.430;4.668;2022-10-19T02:34:43;6.00;;;3.88;;
71777;SDS011;59609;52.430;4.668;2022-10-19T02:37:08;9.70;;;4.30;;
71777;SDS011;59609;52.430;4.668;2022-10-19T02:39:34;8.55;;;3.90;;
71777;SDS011;59609;52.430;4.668;2022-10-19T02:42:03;9.02;;;4.72;;
71777;SDS011;59609;52.430;4.668;2022-10-19T02:44:52;8.27;;;4.25;;
71777;SDS011;59609;52.430;4.668;2022-10-19T02:49:49;5.35;;;3.65;;
71777;SDS011;59609;52.430;4.668;2022-10-19T02:52:16;5.80;;;3.50;;
71777;SDS011;59609;52.430;4.668;2022-10-19T02:54:42;10.50;;;4.40;;
71777;SDS011;59609;52.430;4.668;2022-10-19T02:57:18;7.93;;;4.13;;
71777;SDS011;59609;52.430;4.668;2022-10-19T02:59:45;7.53;;;3.35;;
71777;SDS011;59609;52.430;4.668;2022-10-19T03:02:11;8.85;;;3.92;;
71777;SDS011;59609;52.430;4.668;2022-10-19T03:04:37;8.57;;;3.92;;
71777;SDS011;59609;52.430;4.668;2022-10-19T03:07:03;6.25;;;4.20;;
71777;SDS011;59609;52.430;4.668;2022-10-19T03:09:28;7.13;;;4.47;;
71777;SDS011;59609;52.430;4.668;2022-10-19T03:11:54;5.57;;;3.70;;
71777;SDS011;59609;52.430;4.668;2022-10-19T03:14:20;6.65;;;3.67;;
71777;SDS011;59609;52.430;4.668;2022-10-19T03:16:45;6.35;;;3.90;;
71777;SDS011;59609;52.430;4.668;2022-10-19T03:19:10;5.30;;;3.42;;
71777;SDS011;59609;52.430;4.668;2022-10-19T03:21:36;10.13;;;3.95;;
71777;SDS011;59609;52.430;4.668;2022-10-19T03:24:01;8.35;;;3.63;;
71777;SDS011;59609;52.430;4.668;2022-10-19T03:26:26;6.60;;;4.07;;
71777;SDS011;59609;52.430;4.668;2022-10-19T03:28:52;5.50;;;3.65;;
71777;SDS011;59609;52.430;4.668;2022-10-19T03:31:17;5.72;;;3.78;;
71777;SDS011;59609;52.430;4.668;2022-10-19T03:33:43;5.40;;;3.13;;
71777;SDS011;59609;52.430;4.668;2022-10-19T03:36:16;5.55;;;3.75;;
71777;SDS011;59609;52.430;4.668;2022-10-19T03:38:45;5.53;;;3.42;;
71777;SDS011;59609;52.430;4.668;2022-10-19T03:41:10;6.30;;;3.97;;
71777;SDS011;59609;52.430;4.668;2022-10-19T03:43:36;8.38;;;3.92;;
71777;SDS011;59609;52.430;4.668;2022-10-19T03:46:02;5.22;;;3.35;;
71777;SDS011;59609;52.430;4.668;2022-10-19T03:48:27;4.45;;;3.20;;
71777;SDS011;59609;52.430;4.668;2022-10-19T03:51:03;6.10;;;3.40;;
71777;SDS011;59609;52.430;4.668;2022-10-19T03:53:30;7.65;;;3.28;;
71777;SDS011;59609;52.430;4.668;2022-10-19T03:55:59;5.50;;;3.25;;
71777;SDS011;59609;52.430;4.668;2022-10-19T03:58:35;4.53;;;2.95;;
71777;SDS011;59609;52.430;4.668;2022-10-19T04:01:04;9.63;;;3.40;;
71777;SDS011;59609;52.430;4.668;2022-10-19T04:03:31;10.55;;;3.25;;
71777;SDS011;59609;52.430;4.668;2022-10-19T04:06:01;6.78;;;3.58;;
71777;SDS011;59609;52.430;4.668;2022-10-19T04:08:30;4.10;;;3.00;;
71777;SDS011;59609;52.430;4.668;2022-10-19T04:11:00;4.32;;;3.03;;
71777;SDS011;59609;52.430;4.668;2022-10-19T04:13:26;4.25;;;2.70;;
71777;SDS011;59609;52.430;4.668;2022-10-19T04:15:52;7.18;;;3.58;;
71777;SDS011;59609;52.430;4.668;2022-10-19T04:18:17;4.45;;;2.67;;
71777;SDS011;59609;52.430;4.668;2022-10-19T04:20:43;5.05;;;2.70;;
71777;SDS011;59609;52.430;4.668;2022-10-19T04:23:08;8.25;;;3.05;;
71777;SDS011;59609;52.430;4.668;2022-10-19T04:25:33;6.20;;;2.60;;
71777;SDS011;59609;52.430;4.668;2022-10-19T04:27:59;5.25;;;2.67;;
71777;SDS011;59609;52.430;4.668;2022-10-19T04:30:24;5.10;;;2.60;;
71777;SDS011;59609;52.430;4.668;2022-10-19T04:32:50;5.75;;;3.05;;
71777;SDS011;59609;52.430;4.668;2022-10-19T04:35:15;4.15;;;2.83;;
71777;SDS011;59609;52.430;4.668;2022-10-19T04:37:40;3.95;;;2.65;;
71777;SDS011;59609;52.430;4.668;2022-10-19T04:40:06;5.00;;;2.97;;
71777;SDS011;59609;52.430;4.668;2022-10-19T04:42:32;4.60;;;3.00;;
71777;SDS011;59609;52.430;4.668;2022-10-19T04:44:57;5.05;;;2.53;;
71777;SDS011;59609;52.430;4.668;2022-10-19T04:47:23;4.43;;;2.70;;
71777;SDS011;59609;52.430;4.668;2022-10-19T04:49:48;7.45;;;3.28;;
71777;SDS011;59609;52.430;4.668;2022-10-19T04:52:13;11.10;;;2.83;;
71777;SDS011;59609;52.430;4.668;2022-10-19T04:54:39;7.28;;;3.08;;
71777;SDS011;59609;52.430;4.668;2022-10-19T04:57:04;4.78;;;2.65;;
71777;SDS011;59609;52.430;4.668;2022-10-19T04:59:29;4.75;;;2.90;;
71777;SDS011;59609;52.430;4.668;2022-10-19T05:01:55;6.50;;;2.63;;
71777;SDS011;59609;52.430;4.668;2022-10-19T05:04:20;4.65;;;2.33;;
71777;SDS011;59609;52.430;4.668;2022-10-19T05:06:45;5.75;;;2.40;;
71777;SDS011;59609;52.430;4.668;2022-10-19T05:09:11;5.38;;;2.78;;
71777;SDS011;59609;52.430;4.668;2022-10-19T05:11:36;9.82;;;3.47;;
71777;SDS011;59609;52.430;4.668;2022-10-19T05:14:01;6.55;;;3.45;;
71777;SDS011;59609;52.430;4.668;2022-10-19T05:16:27;8.00;;;3.55;;
71777;SDS011;59609;52.430;4.668;2022-10-19T05:18:53;6.18;;;3.03;;
71777;SDS011;59609;52.430;4.668;2022-10-19T05:21:20;5.80;;;2.83;;
71777;SDS011;59609;52.430;4.668;2022-10-19T05:23:49;5.43;;;2.88;;
71777;SDS011;59609;52.430;4.668;2022-10-19T05:26:16;5.85;;;3.13;;
71777;SDS011;59609;52.430;4.668;2022-10-19T05:28:46;4.57;;;2.58;;
71777;SDS011;59609;52.430;4.668;2022-10-19T05:31:14;6.15;;;2.78;;
71777;SDS011;59609;52.430;4.668;2022-10-19T05:33:41;4.93;;;2.60;;
71777;SDS011;59609;52.430;4.668;2022-10-19T05:36:14;6.97;;;3.15;;
71777;SDS011;59609;52.430;4.668;2022-10-19T05:38:40;5.93;;;2.92;;
71777;SDS011;59609;52.430;4.668;2022-10-19T05:41:06;6.15;;;2.90;;
71777;SDS011;59609;52.430;4.668;2022-10-19T05:43:31;5.15;;;2.65;;
71777;SDS011;59609;52.430;4.668;2022-10-19T05:46:01;4.63;;;2.47;;
71777;SDS011;59609;52.430;4.668;2022-10-19T05:48:30;11.65;;;2.80;;
71777;SDS011;59609;52.430;4.668;2022-10-19T05:50:57;4.65;;;2.88;;
71777;SDS011;59609;52.430;4.668;2022-10-19T05:53:24;5.95;;;2.63;;
71777;SDS011;59609;52.430;4.668;2022-10-19T05:55:49;8.27;;;2.55;;
71777;SDS011;59609;52.430;4.668;2022-10-19T05:58:14;5.40;;;2.50;;
71777;SDS011;59609;52.430;4.668;2022-10-19T06:00:40;5.95;;;2.55;;
71777;SDS011;59609;52.430;4.668;2022-10-19T06:03:05;8.77;;;3.28;;
71777;SDS011;59609;52.430;4.668;2022-10-19T06:05:30;4.93;;;2.60;;
71777;SDS011;59609;52.430;4.668;2022-10-19T06:07:56;4.95;;;2.55;;
71777;SDS011;59609;52.430;4.668;2022-10-19T06:10:21;4.40;;;2.72;;
71777;SDS011;59609;52.430;4.668;2022-10-19T06:12:46;11.43;;;2.97;;
71777;SDS011;59609;52.430;4.668;2022-10-19T06:15:12;6.32;;;3.13;;
71777;SDS011;59609;52.430;4.668;2022-10-19T06:17:37;5.78;;;2.97;;
71777;SDS011;59609;52.430;4.668;2022-10-19T06:20:03;5.28;;;3.08;;
71777;SDS011;59609;52.430;4.668;2022-10-19T06:22:28;6.50;;;2.88;;
71777;SDS011;59609;52.430;4.668;2022-10-19T06:24:54;5.72;;;3.17;;
71777;SDS011;59609;52.430;4.668;2022-10-19T06:27:20;7.90;;;3.45;;
71777;SDS011;59609;52.430;4.668;2022-10-19T06:29:45;9.93;;;3.63;;
71777;SDS011;59609;52.430;4.668;2022-10-19T06:32:11;8.30;;;3.53;;
71777;SDS011;59609;52.430;4.668;2022-10-19T06:34:36;8.35;;;3.70;;
71777;SDS011;59609;52.430;4.668;2022-10-19T06:37:01;12.38;;;4.10;;
71777;SDS011;59609;52.430;4.668;2022-10-19T06:39:26;10.20;;;3.42;;
71777;SDS011;59609;52.430;4.668;2022-10-19T06:41:52;8.18;;;3.20;;
71777;SDS011;59609;52.430;4.668;2022-10-19T06:44:17;5.00;;;3.15;;
71777;SDS011;59609;52.430;4.668;2022-10-19T06:46:43;7.80;;;3.00;;
71777;SDS011;59609;52.430;4.668;2022-10-19T06:49:10;5.75;;;2.90;;
71777;SDS011;59609;52.430;4.668;2022-10-19T06:51:36;12.57;;;3.70;;
71777;SDS011;59609;52.430;4.668;2022-10-19T06:54:02;8.18;;;3.47;;
71777;SDS011;59609;52.430;4.668;2022-10-19T06:56:27;10.13;;;3.17;;
71777;SDS011;59609;52.430;4.668;2022-10-19T06:58:53;7.20;;;3.03;;
71777;SDS011;59609;52.430;4.668;2022-10-19T07:01:19;6.60;;;3.15;;
71777;SDS011;59609;52.430;4.668;2022-10-19T07:03:44;5.32;;;3.03;;
71777;SDS011;59609;52.430;4.668;2022-10-19T07:06:10;10.00;;;3.15;;
71777;SDS011;59609;52.430;4.668;2022-10-19T07:08:37;7.25;;;3.47;;
71777;SDS011;59609;52.430;4.668;2022-10-19T07:11:06;7.97;;;2.97;;
71777;SDS011;59609;52.430;4.668;2022-10-19T07:13:33;6.57;;;3.33;;
71777;SDS011;59609;52.430;4.668;2022-10-19T07:15:59;7.88;;;3.20;;
71777;SDS011;59609;52.430;4.668;2022-10-19T07:18:31;10.13;;;3.10;;
71777;SDS011;59609;52.430;4.668;2022-10-19T07:20:58;4.25;;;3.00;;
71777;SDS011;59609;52.430;4.668;2022-10-19T07:23:26;5.95;;;2.72;;
71777;SDS011;59609;52.430;4.668;2022-10-19T07:25:53;6.38;;;2.80;;
71777;SDS011;59609;52.430;4.668;2022-10-19T07:28:24;4.90;;;2.72;;
71777;SDS011;59609;52.430;4.668;2022-10-19T07:30:49;9.10;;;3.58;;
71777;SDS011;59609;52.430;4.668;2022-10-19T07:33:14;5.20;;;2.83;;
71777;SDS011;59609;52.430;4.668;2022-10-19T07:35:40;10.55;;;3.60;;
71777;SDS011;59609;52.430;4.668;2022-10-19T07:38:05;5.00;;;2.53;;
71777;SDS011;59609;52.430;4.668;2022-10-19T07:40:30;5.78;;;3.15;;
71777;SDS011;59609;52.430;4.668;2022-10-19T07:42:56;4.13;;;2.15;;
71777;SDS011;59609;52.430;4.668;2022-10-19T07:45:21;4.53;;;2.10;;
71777;SDS011;59609;52.430;4.668;2022-10-19T07:47:47;4.82;;;1.80;;
71777;SDS011;59609;52.430;4.668;2022-10-19T07:50:12;5.10;;;2.05;;
71777;SDS011;59609;52.430;4.668;2022-10-19T07:52:37;5.55;;;2.85;;
71777;SDS011;59609;52.430;4.668;2022-10-19T07:55:03;5.25;;;2.10;;
71777;SDS011;59609;52.430;4.668;2022-10-19T07:57:28;4.65;;;1.92;;
71777;SDS011;59609;52.430;4.668;2022-10-19T07:59:54;9.10;;;2.20;;
71777;SDS011;59609;52.430;4.668;2022-10-19T08:02:20;5.00;;;2.05;;
71777;SDS011;59609;52.430;4.668;2022-10-19T08:04:45;9.55;;;2.67;;
71777;SDS011;59609;52.430;4.668;2022-10-19T08:07:11;8.77;;;2.15;;
71777;SDS011;59609;52.430;4.668;2022-10-19T08:09:36;7.57;;;2.00;;
71777;SDS011;59609;52.430;4.668;2022-10-19T08:12:02;6.50;;;1.70;;
71777;SDS011;59609;52.430;4.668;2022-10-19T08:14:28;6.72;;;2.15;;
71777;SDS011;59609;52.430;4.668;2022-10-19T08:16:54;5.63;;;1.80;;
71777;SDS011;59609;52.430;4.668;2022-10-19T08:19:19;3.38;;;1.70;;
71777;SDS011;59609;52.430;4.668;2022-10-19T08:21:46;9.10;;;2.45;;
71777;SDS011;59609;52.430;4.668;2022-10-19T08:24:13;7.60;;;1.90;;
71777;SDS011;59609;52.430;4.668;2022-10-19T08:26:40;5.05;;;2.20;;
71777;SDS011;59609;52.430;4.668;2022-10-19T08:29:09;8.52;;;2.53;;
71777;SDS011;59609;52.430;4.668;2022-10-19T08:31:36;3.78;;;1.48;;
71777;SDS011;59609;52.430;4.668;2022-10-19T08:34:02;7.43;;;1.55;;
71777;SDS011;59609;52.430;4.668;2022-10-19T08:36:28;5.60;;;1.92;;
71777;SDS011;59609;52.430;4.668;2022-10-19T08:38:55;5.18;;;1.60;;
71777;SDS011;59609;52.430;4.668;2022-10-19T08:44:02;6.28;;;1.70;;
71777;SDS011;59609;52.430;4.668;2022-10-19T08:49:19;10.52;;;1.65;;
71777;SDS011;59609;52.430;4.668;2022-10-19T08:54:16;6.18;;;1.15;;
71777;SDS011;59609;52.430;4.668;2022-10-19T08:57:06;9.38;;;2.58;;
71777;SDS011;59609;52.430;4.668;2022-10-19T09:02:18;7.45;;;1.02;;
71777;SDS011;59609;52.430;4.668;2022-10-19T09:04:47;5.03;;;1.27;;
71777;SDS011;59609;52.430;4.668;2022-10-19T09:07:22;6.93;;;1.45;;
71777;SDS011;59609;52.430;4.668;2022-10-19T09:09:54;4.88;;;1.23;;
71777;SDS011;59609;52.430;4.668;2022-10-19T09:12:28;5.68;;;1.20;;
71777;SDS011;59609;52.430;4.668;2022-10-19T09:15:06;4.00;;;1.48;;
71777;SDS011;59609;52.430;4.668;2022-10-19T09:17:36;2.63;;;1.17;;
71777;SDS011;59609;52.430;4.668;2022-10-19T09:20:15;1.95;;;0.80;;
71777;SDS011;59609;52.430;4.668;2022-10-19T09:22:43;5.97;;;1.20;;
71777;SDS011;59609;52.430;4.668;2022-10-19T09:25:14;2.72;;;0.90;;
71777;SDS011;59609;52.430;4.668;2022-10-19T09:30:18;7.75;;;0.90;;
71777;SDS011;59609;52.430;4.668;2022-10-19T09:32:45;3.58;;;0.80;;
71777;SDS011;59609;52.430;4.668;2022-10-19T09:35:25;5.63;;;1.08;;
71777;SDS011;59609;52.430;4.668;2022-10-19T09:37:55;3.55;;;0.93;;
71777;SDS011;59609;52.430;4.668;2022-10-19T09:40:25;4.88;;;1.05;;
71777;SDS011;59609;52.430;4.668;2022-10-19T09:42:52;2.30;;;0.80;;
71777;SDS011;59609;52.430;4.668;2022-10-19T09:45:27;4.30;;;0.70;;
71777;SDS011;59609;52.430;4.668;2022-10-19T09:47:57;6.47;;;0.80;;
71777;SDS011;59609;52.430;4.668;2022-10-19T09:50:26;8.85;;;1.17;;
71777;SDS011;59609;52.430;4.668;2022-10-19T09:55:37;4.07;;;0.70;;
71777;SDS011;59609;52.430;4.668;2022-10-19T10:00:38;5.78;;;0.93;;
71777;SDS011;59609;52.430;4.668;2022-10-19T10:03:07;6.40;;;1.00;;
71777;SDS011;59609;52.430;4.668;2022-10-19T10:05:45;5.25;;;0.90;;
71777;SDS011;59609;52.430;4.668;2022-10-19T10:08:13;4.82;;;0.90;;
71777;SDS011;59609;52.430;4.668;2022-10-19T10:13:33;5.10;;;0.90;;
71777;SDS011;59609;52.430;4.668;2022-10-19T10:16:01;3.30;;;0.90;;
71777;SDS011;59609;52.430;4.668;2022-10-19T10:18:30;8.50;;;1.00;;
71777;SDS011;59609;52.430;4.668;2022-10-19T10:23:25;3.53;;;0.80;;
71777;SDS011;59609;52.430;4.668;2022-10-19T10:25:55;3.85;;;1.05;;
71777;SDS011;59609;52.430;4.668;2022-10-19T10:28:23;7.20;;;1.08;;
71777;SDS011;59609;52.430;4.668;2022-10-19T10:33:26;10.82;;;1.38;;
71777;SDS011;59609;52.430;4.668;2022-10-19T10:35:54;7.95;;;1.00;;
71777;SDS011;59609;52.430;4.668;2022-10-19T10:38:29;7.30;;;1.83;;
71777;SDS011;59609;52.430;4.668;2022-10-19T10:41:05;7.53;;;1.50;;
71777;SDS011;59609;52.430;4.668;2022-10-19T10:43:37;4.82;;;1.05;;
71777;SDS011;59609;52.430;4.668;2022-10-19T10:46:15;5.60;;;1.00;;
71777;SDS011;59609;52.430;4.668;2022-10-19T10:48:57;4.13;;;0.95;;
71777;SDS011;59609;52.430;4.668;2022-10-19T10:51:32;11.70;;;1.40;;
71777;SDS011;59609;52.430;4.668;2022-10-19T10:54:18;5.72;;;1.02;;
71777;SDS011;59609;52.430;4.668;2022-10-19T10:57:01;4.65;;;0.82;;
71777;SDS011;59609;52.430;4.668;2022-10-19T11:04:53;5.50;;;1.35;;
71777;SDS011;59609;52.430;4.668;2022-10-19T11:07:24;5.07;;;1.35;;
71777;SDS011;59609;52.430;4.668;2022-10-19T11:09:58;6.70;;;1.48;;
71777;SDS011;59609;52.430;4.668;2022-10-19T11:12:32;4.28;;;1.17;;
71777;SDS011;59609;52.430;4.668;2022-10-19T11:15:03;7.80;;;2.53;;
71777;SDS011;59609;52.430;4.668;2022-10-19T11:17:35;5.00;;;1.80;;
71777;SDS011;59609;52.430;4.668;2022-10-19T11:20:05;3.42;;;0.95;;
71777;SDS011;59609;52.430;4.668;2022-10-19T11:22:39;4.97;;;1.25;;
71777;SDS011;59609;52.430;4.668;2022-10-19T11:30:22;3.72;;;1.00;;
71777;SDS011;59609;52.430;4.668;2022-10-19T11:42:08;6.45;;;1.20;;
71777;SDS011;59609;52.430;4.668;2022-10-19T11:44:54;5.78;;;0.77;;
71777;SDS011;59609;52.430;4.668;2022-10-19T12:00:20;4.53;;;0.82;;
71777;SDS011;59609;52.430;4.668;2022-10-19T12:11:07;3.83;;;1.23;;
71777;SDS011;59609;52.430;4.668;2022-10-19T12:13:50;5.85;;;0.93;;
71777;SDS011;59609;52.430;4.668;2022-10-19T12:16:19;4.78;;;0.90;;
71777;SDS011;59609;52.430;4.668;2022-10-19T12:18:49;8.98;;;1.40;;
71777;SDS011;59609;52.430;4.668;2022-10-19T12:21:38;19.52;;;2.53;;
71777;SDS011;59609;52.430;4.668;2022-10-19T12:24:26;6.28;;;1.20;;
71777;SDS011;59609;52.430;4.668;2022-10-19T12:26:52;10.27;;;1.27;;
71777;SDS011;59609;52.430;4.668;2022-10-19T12:29:23;24.35;;;2.63;;
71777;SDS011;59609;52.430;4.668;2022-10-19T12:31:52;10.23;;;1.52;;
71777;SDS011;59609;52.430;4.668;2022-10-19T12:34:54;6.53;;;1.00;;
71777;SDS011;59609;52.430;4.668;2022-10-19T12:43:00;3.28;;;0.93;;
71777;SDS011;59609;52.430;4.668;2022-10-19T12:45:38;3.88;;;0.82;;
71777;SDS011;59609;52.430;4.668;2022-10-19T12:53:26;5.70;;;1.00;;
71777;SDS011;59609;52.430;4.668;2022-10-19T13:01:26;7.10;;;1.40;;
71777;SDS011;59609;52.430;4.668;2022-10-19T13:06:35;3.25;;;1.25;;
71777;SDS011;59609;52.430;4.668;2022-10-19T13:09:05;5.20;;;1.98;;
71777;SDS011;59609;52.430;4.668;2022-10-19T13:11:33;4.28;;;1.02;;
71777;SDS011;59609;52.430;4.668;2022-10-19T13:14:04;4.18;;;1.02;;
71777;SDS011;59609;52.430;4.668;2022-10-19T13:16:57;5.05;;;1.10;;
71777;SDS011;59609;52.430;4.668;2022-10-19T13:19:24;4.75;;;1.10;;
71777;SDS011;59609;52.430;4.668;2022-10-19T13:27:18;6.97;;;1.10;;
71777;SDS011;59609;52.430;4.668;2022-10-19T13:38:33;5.70;;;1.20;;
71777;SDS011;59609;52.430;4.668;2022-10-19T13:40:35;4.35;;;1.15;;
71777;SDS011;59609;52.430;4.668;2022-10-19T13:43:02;6.80;;;1.25;;
71777;SDS011;59609;52.430;4.668;2022-10-19T13:45:28;6.00;;;1.02;;
71777;SDS011;59609;52.430;4.668;2022-10-19T13:47:56;7.03;;;1.38;;
71777;SDS011;59609;52.430;4.668;2022-10-19T13:50:40;7.63;;;1.30;;
71777;SDS011;59609;52.430;4.668;2022-10-19T13:53:15;6.00;;;1.33;;
71777;SDS011;59609;52.430;4.668;2022-10-19T13:58:30;5.05;;;1.20;;
71777;SDS011;59609;52.430;4.668;2022-10-19T14:06:39;3.85;;;1.13;;
71777;SDS011;59609;52.430;4.668;2022-10-19T14:11:53;7.40;;;1.23;;
71777;SDS011;59609;52.430;4.668;2022-10-19T14:14:36;7.13;;;1.30;;
71777;SDS011;59609;52.430;4.668;2022-10-19T14:17:12;5.97;;;1.17;;
71777;SDS011;59609;52.430;4.668;2022-10-19T14:19:44;7.18;;;1.50;;
71777;SDS011;59609;52.430;4.668;2022-10-19T14:25:17;5.15;;;1.17;;
71777;SDS011;59609;52.430;4.668;2022-10-19T14:27:49;4.85;;;1.00;;
71777;SDS011;59609;52.430;4.668;2022-10-19T14:30:21;4.65;;;1.40;;
71777;SDS011;59609;52.430;4.668;2022-10-19T14:35:21;6.38;;;1.50;;
71777;SDS011;59609;52.430;4.668;2022-10-19T14:37:52;4.68;;;1.60;;
71777;SDS011;59609;52.430;4.668;2022-10-19T14:40:29;8.05;;;1.65;;
71777;SDS011;59609;52.430;4.668;2022-10-19T14:43:01;6.70;;;1.50;;
71777;SDS011;59609;52.430;4.668;2022-10-19T14:45:30;8.63;;;1.40;;
71777;SDS011;59609;52.430;4.668;2022-10-19T14:47:58;9.88;;;1.20;;
71777;SDS011;59609;52.430;4.668;2022-10-19T14:53:01;8.10;;;1.50;;
71777;SDS011;59609;52.430;4.668;2022-10-19T14:55:49;6.50;;;1.08;;
71777;SDS011;59609;52.430;4.668;2022-10-19T14:58:19;11.32;;;1.58;;
71777;SDS011;59609;52.430;4.668;2022-10-19T15:00:47;6.68;;;1.25;;
71777;SDS011;59609;52.430;4.668;2022-10-19T15:03:20;7.75;;;1.60;;
71777;SDS011;59609;52.430;4.668;2022-10-19T15:05:58;5.55;;;1.08;;
71777;SDS011;59609;52.430;4.668;2022-10-19T15:11:32;6.13;;;1.45;;
71777;SDS011;59609;52.430;4.668;2022-10-19T15:14:06;5.90;;;1.52;;
71777;SDS011;59609;52.430;4.668;2022-10-19T15:21:30;8.60;;;1.70;;
71777;SDS011;59609;52.430;4.668;2022-10-19T15:24:04;5.70;;;1.33;;
71777;SDS011;59609;52.430;4.668;2022-10-19T15:26:50;6.45;;;1.20;;
71777;SDS011;59609;52.430;4.668;2022-10-19T15:29:21;6.53;;;1.75;;
71777;SDS011;59609;52.430;4.668;2022-10-19T15:31:51;5.30;;;1.30;;
71777;SDS011;59609;52.430;4.668;2022-10-19T15:34:24;7.80;;;1.75;;
71777;SDS011;59609;52.430;4.668;2022-10-19T15:36:56;6.60;;;1.40;;
71777;SDS011;59609;52.430;4.668;2022-10-19T15:39:26;8.32;;;1.40;;
71777;SDS011;59609;52.430;4.668;2022-10-19T15:42:14;9.75;;;1.85;;
71777;SDS011;59609;52.430;4.668;2022-10-19T15:44:59;6.80;;;1.67;;
71777;SDS011;59609;52.430;4.668;2022-10-19T15:47:25;6.88;;;1.60;;
71777;SDS011;59609;52.430;4.668;2022-10-19T15:52:31;6.70;;;1.77;;
71777;SDS011;59609;52.430;4.668;2022-10-19T15:54:57;5.88;;;1.85;;
71777;SDS011;59609;52.430;4.668;2022-10-19T15:59:55;4.55;;;1.65;;
71777;SDS011;59609;52.430;4.668;2022-10-19T16:02:22;8.77;;;1.88;;
71777;SDS011;59609;52.430;4.668;2022-10-19T16:04:49;4.60;;;1.65;;
71777;SDS011;59609;52.430;4.668;2022-10-19T16:07:18;8.90;;;2.00;;
71777;SDS011;59609;52.430;4.668;2022-10-19T16:09:49;9.65;;;1.92;;
71777;SDS011;59609;52.430;4.668;2022-10-19T16:12:15;5.20;;;1.83;;
71777;SDS011;59609;52.430;4.668;2022-10-19T16:14:40;9.40;;;2.13;;
71777;SDS011;59609;52.430;4.668;2022-10-19T16:17:05;6.93;;;2.58;;
71777;SDS011;59609;52.430;4.668;2022-10-19T16:19:31;6.05;;;2.10;;
71777;SDS011;59609;52.430;4.668;2022-10-19T16:21:56;8.52;;;2.30;;
71777;SDS011;59609;52.430;4.668;2022-10-19T16:24:21;7.88;;;2.08;;
71777;SDS011;59609;52.430;4.668;2022-10-19T16:26:47;5.30;;;1.67;;
71777;SDS011;59609;52.430;4.668;2022-10-19T16:29:12;6.80;;;2.53;;
71777;SDS011;59609;52.430;4.668;2022-10-19T16:31:38;9.48;;;3.00;;
71777;SDS011;59609;52.430;4.668;2022-10-19T16:34:03;8.80;;;1.95;;
71777;SDS011;59609;52.430;4.668;2022-10-19T16:36:28;8.48;;;1.95;;
71777;SDS011;59609;52.430;4.668;2022-10-19T16:38:54;7.45;;;2.13;;
71777;SDS011;59609;52.430;4.668;2022-10-19T16:41:19;6.45;;;2.25;;
71777;SDS011;59609;52.430;4.668;2022-10-19T16:43:45;5.95;;;2.13;;
71777;SDS011;59609;52.430;4.668;2022-10-19T16:46:12;9.02;;;2.67;;
71777;SDS011;59609;52.430;4.668;2022-10-19T16:48:38;9.50;;;3.38;;
71777;SDS011;59609;52.430;4.668;2022-10-19T16:53:35;6.78;;;2.97;;
71777;SDS011;59609;52.430;4.668;2022-10-19T16:56:05;6.35;;;2.95;;
71777;SDS011;59609;52.430;4.668;2022-10-19T16:58:33;6.60;;;2.22;;
71777;SDS011;59609;52.430;4.668;2022-10-19T17:01:00;6.20;;;2.90;;
71777;SDS011;59609;52.430;4.668;2022-10-19T17:03:33;9.52;;;2.58;;
71777;SDS011;59609;52.430;4.668;2022-10-19T17:06:03;8.68;;;3.17;;
71777;SDS011;59609;52.430;4.668;2022-10-19T17:08:29;6.82;;;2.67;;
71777;SDS011;59609;52.430;4.668;2022-10-19T17:10:56;9.35;;;3.13;;
71777;SDS011;59609;52.430;4.668;2022-10-19T17:13:21;6.60;;;2.88;;
71777;SDS011;59609;52.430;4.668;2022-10-19T17:15:47;8.20;;;3.35;;
71777;SDS011;59609;52.430;4.668;2022-10-19T17:18:12;7.00;;;3.22;;
71777;SDS011;59609;52.430;4.668;2022-10-19T17:20:38;7.45;;;3.13;;
71777;SDS011;59609;52.430;4.668;2022-10-19T17:23:03;7.97;;;3.00;;
71777;SDS011;59609;52.430;4.668;2022-10-19T17:25:28;8.93;;;3.25;;
71777;SDS011;59609;52.430;4.668;2022-10-19T17:27:54;7.80;;;3.10;;
71777;SDS011;59609;52.430;4.668;2022-10-19T17:30:19;6.57;;;3.05;;
71777;SDS011;59609;52.430;4.668;2022-10-19T17:32:45;7.35;;;3.72;;
71777;SDS011;59609;52.430;4.668;2022-10-19T17:35:10;9.55;;;3.33;;